Tokuyo Maru No21 — JK5540 — position and weather

sailwx.info

Track history (hours):
 
Tides and Currents Weather Stations Pressure Air Temp Water Temp Dewpoint Dewpoint Depression Visibility Wind Speed Wind Dir Waves Ship Positions

Tokuyo Maru No21

Last reported at 2018-Jan-21 20:00 UTC. Time now 2018-Jan-21 20:29 UTC.
Position N 33°52' E 131°19'.

Length 67 m; draft 4.5 m.

Type: Tanker. MMSI: 431401849.

Date/timePositionNaut miles runAvg speedWind from/ knotsBaromVisibWave heightAir tempDewpointWater temp
2018-Jan-21 20:00N 33°52' E 131°19'612.7
2018-Jan-21 19:30N 33°50' E 131°26'612.7
2018-Jan-21 19:00N 33°49' E 131°34'612.6
2018-Jan-21 18:30N 33°48' E 131°41'712.6
2018-Jan-21 17:59N 33°47' E 131°49'1012.7
2018-Jan-21 17:11N 33°46' E 132°01'313.1
2018-Jan-21 16:59N 33°46' E 132°04'713.6
2018-Jan-21 16:30N 33°50' E 132°11'813.0
2018-Jan-21 15:55N 33°50' E 132°20'912.9
2018-Jan-21 15:14N 33°53' E 132°30'312.6
2018-Jan-21 15:00N 33°54' E 132°34'612.0
2018-Jan-21 14:30N 33°56' E 132°40'8911.0
2018-Jan-21 06:28N 34°25' E 134°21'612.4
2018-Jan-21 06:00N 34°28' E 134°28'612.6
2018-Jan-21 05:30N 34°30' E 134°35'612.8
2018-Jan-21 05:00N 34°32' E 134°42'713.6
2018-Jan-21 04:30N 34°35' E 134°50'713.8
2018-Jan-21 04:00N 34°37' E 134°58'713.3
2018-Jan-21 03:30N 34°36' E 135°06'612.8
2018-Jan-21 03:00N 34°36' E 135°13'612.5
2018-Jan-21 02:30N 34°36' E 135°21'4 8.2
2018-Jan-21 02:00N 34°34' E 135°26'0 0.0
2018-Jan-21 01:30N 34°34' E 135°26'0 0.0
2018-Jan-21 01:00N 34°34' E 135°26'0 0.0
2018-Jan-21 00:30N 34°34' E 135°26'0 0.0
2018-Jan-20 23:59N 34°34' E 135°26'0 0.0
2018-Jan-20 23:30N 34°34' E 135°26'0 0.0
2018-Jan-20 23:00N 34°34' E 135°26'1 3.0
2018-Jan-20 22:31N 34°36' E 135°25'2 3.5
2018-Jan-20 22:00N 34°36' E 135°23'0 0.0
2018-Jan-20 21:30N 34°36' E 135°23'0 0.1
2018-Jan-20 21:00N 34°36' E 135°23'0 0.1
2018-Jan-20 20:30N 34°36' E 135°23'0 0.0
2018-Jan-20 20:00N 34°36' E 135°23'0 0.0
2018-Jan-20 19:30N 34°36' E 135°23'0 0.0
2018-Jan-20 19:00N 34°36' E 135°23'0 0.0
2018-Jan-20 18:30N 34°36' E 135°23'0 0.0
2018-Jan-20 18:00N 34°36' E 135°23'0 0.0
2018-Jan-20 17:30N 34°36' E 135°23'0 0.0
2018-Jan-20 17:00N 34°36' E 135°23'0 0.0
2018-Jan-20 16:30N 34°36' E 135°23'0 0.1
2018-Jan-20 16:01N 34°36' E 135°23'0 0.0
2018-Jan-20 15:30N 34°36' E 135°23'0 0.1
2018-Jan-20 15:01N 34°36' E 135°23'0 0.0
2018-Jan-20 14:30N 34°36' E 135°23'510.5
2018-Jan-20 14:00N 34°32' E 135°18'611.9
2018-Jan-20 13:31N 34°28' E 135°13'612.4
2018-Jan-20 13:00N 34°23' E 135°08'612.9
2018-Jan-20 12:31N 34°18' E 135°04'612.7
2018-Jan-20 12:00N 34°12' E 135°03'612.5
2018-Jan-20 11:30N 34°06' E 135°03'612.5
2018-Jan-20 11:00N 33°59' E 135°03'712.5
2018-Jan-20 10:28N 33°53' E 135°03'19111.1
2018-Jan-19 17:18N 34°35' E 138°49'512.3
2018-Jan-19 16:55N 34°36' E 138°54'812.1
2018-Jan-19 16:16N 34°41' E 139°01'312.9
2018-Jan-19 16:00N 34°43' E 139°04'812.6
2018-Jan-19 15:24N 34°50' E 139°09'712.1
2018-Jan-19 14:49N 34°53' E 139°16'511.2
2018-Jan-19 14:21N 34°56' E 139°22'511.5
2018-Jan-19 13:54N 34°59' E 139°27'511.7
2018-Jan-19 13:28N 35°02' E 139°32'612.4
2018-Jan-19 13:00N 35°05' E 139°38'612.7
2018-Jan-19 12:30N 35°09' E 139°44'613.0
2018-Jan-19 12:00N 35°16' E 139°46'612.7
2018-Jan-19 11:30N 35°21' E 139°42'612.3
2018-Jan-19 11:01N 35°26' E 139°46'713.1
2018-Jan-19 10:31N 35°30' E 139°53'613.0
2018-Jan-19 10:01N 35°33' E 140°00'4 7.8
2018-Jan-19 09:30N 35°33' E 140°05'0 0.0
2018-Jan-19 09:01N 35°33' E 140°05'0 0.0
2018-Jan-19 08:31N 35°33' E 140°05'0 0.0
2018-Jan-19 08:01N 35°33' E 140°05'0 0.0
2018-Jan-19 07:29N 35°33' E 140°05'0 0.0
2018-Jan-19 07:00N 35°33' E 140°05'0 0.0
2018-Jan-19 06:30N 35°33' E 140°05'0 0.0
2018-Jan-19 06:01N 35°33' E 140°05'0 0.0
2018-Jan-19 05:29N 35°33' E 140°05'0 0.0
2018-Jan-19 05:00N 35°33' E 140°05'0 0.0
2018-Jan-19 04:30N 35°33' E 140°05'0 0.0
2018-Jan-19 04:01N 35°33' E 140°05'0 0.0
2018-Jan-19 03:31N 35°33' E 140°05'1 1.3
2018-Jan-19 03:00N 35°33' E 140°05'0 0.7
2018-Jan-19 02:28N 35°34' E 140°05'0 0.0
2018-Jan-19 02:00N 35°34' E 140°05'0 0.0
2018-Jan-19 01:30N 35°34' E 140°05'0 0.0
2018-Jan-19 01:00N 35°34' E 140°05'0 0.0
2018-Jan-19 00:31N 35°34' E 140°05'0 0.0
2018-Jan-19 00:01N 35°34' E 140°05'0 0.0
2018-Jan-18 23:30N 35°34' E 140°05'0 0.0
2018-Jan-18 23:00N 35°34' E 140°05'0 0.0
2018-Jan-18 22:30N 35°34' E 140°05'0 0.0
2018-Jan-18 22:01N 35°34' E 140°05'0 0.0
2018-Jan-18 21:31N 35°34' E 140°05'0 0.0
2018-Jan-18 21:00N 35°34' E 140°05'0 0.0
2018-Jan-18 20:29N 35°34' E 140°05'0 0.0
2018-Jan-18 20:00N 35°34' E 140°05'0 0.0
2018-Jan-18 19:30N 35°34' E 140°05'0 0.0
2018-Jan-18 19:00N 35°34' E 140°05'0 0.0
2018-Jan-18 18:30N 35°34' E 140°05'0 0.0
2018-Jan-18 18:00N 35°34' E 140°05'0 0.1
2018-Jan-18 17:30N 35°34' E 140°05'0 0.0
2018-Jan-18 17:01N 35°34' E 140°05'0 0.0
2018-Jan-18 16:31N 35°34' E 140°05'0 0.1
2018-Jan-18 16:01N 35°34' E 140°05'0 0.0
2018-Jan-18 15:31N 35°34' E 140°05'0 0.0
2018-Jan-18 15:01N 35°34' E 140°05'0 0.0
2018-Jan-18 14:31N 35°34' E 140°05'0 0.0
2018-Jan-18 14:01N 35°34' E 140°05'0 0.0
2018-Jan-18 13:30N 35°34' E 140°05'0 0.0
2018-Jan-18 13:00N 35°34' E 140°05'0 0.0
2018-Jan-18 12:30N 35°34' E 140°05'5 9.7
2018-Jan-18 12:01N 35°33' E 139°59'612.3
2018-Jan-18 11:30N 35°29' E 139°53'612.2
2018-Jan-18 11:00N 35°25' E 139°47'611.8
2018-Jan-18 10:31N 35°20' E 139°44'611.1
2018-Jan-18 10:01N 35°15' E 139°47'612.3
2018-Jan-18 09:30N 35°08' E 139°46'612.0
2018-Jan-18 09:00N 35°04' E 139°42'612.8
2018-Jan-18 08:30N 34°60' E 139°35'1313.7
2018-Jan-18 07:34N 34°52' E 139°23'312.8
2018-Jan-18 07:22N 34°50' E 139°20'613.7
2018-Jan-18 06:56N 34°46' E 139°15'713.9
2018-Jan-18 06:25N 34°42' E 139°08'613.7
2018-Jan-18 05:59N 34°39' E 139°02'613.3
2018-Jan-18 05:31N 34°35' E 138°56'1012.4
2018-Jan-18 04:44N 34°34' E 138°44'311.7
2018-Jan-18 04:29N 34°34' E 138°40'612.0
2018-Jan-18 03:57N 34°34' E 138°33'2112.6
2018-Jan-18 02:16N 34°33' E 138°07'413.6
2018-Jan-18 01:56N 34°33' E 138°02'  
2018-Jan-12 14:59N 35°33' E 140°05'0 0.0
2018-Jan-12 14:30N 35°33' E 140°05'0 0.0
2018-Jan-12 14:00N 35°33' E 140°05'0 0.0
2018-Jan-12 13:30N 35°33' E 140°05'0 0.0
2018-Jan-12 13:00N 35°33' E 140°05'0 0.0
2018-Jan-12 12:30N 35°33' E 140°05'0 0.0
2018-Jan-12 12:00N 35°33' E 140°05'0 0.0
2018-Jan-12 11:30N 35°33' E 140°05'0 0.0
2018-Jan-12 11:00N 35°33' E 140°05'1 1.2
2018-Jan-12 10:30N 35°33' E 140°04'612.1
2018-Jan-12 10:00N 35°31' E 139°57'612.5
2018-Jan-12 09:31N 35°28' E 139°51'612.4
2018-Jan-12 09:01N 35°23' E 139°46'611.4
2018-Jan-12 08:31N 35°17' E 139°45'611.9
2018-Jan-12 08:00N 35°11' E 139°47'612.6
2018-Jan-12 07:30N 35°06' E 139°43'613.1
2018-Jan-12 07:00N 35°02' E 139°37'814.8
2018-Jan-12 06:28N 34°57' E 139°29'815.4
2018-Jan-12 05:58N 34°52' E 139°22'714.9
2018-Jan-12 05:30N 34°48' E 139°15'814.0
2018-Jan-12 04:57N 34°43' E 139°08'613.5
2018-Jan-12 04:30N 34°39' E 139°03'713.5
2018-Jan-12 04:00N 34°35' E 138°56'913.9
2018-Jan-12 03:23N 34°34' E 138°45'513.4
2018-Jan-12 03:00N 34°33' E 138°39'713.2
2018-Jan-12 02:29N 34°32' E 138°31'1113.6
2018-Jan-12 01:40N 34°30' E 138°18'314.0
2018-Jan-12 01:25N 34°29' E 138°14'  
Track history (hours):
 
Tides and Currents Weather Stations Pressure Air Temp Water Temp Dewpoint Dewpoint Depression Visibility Wind Speed Wind Dir Waves Ship Positions

Tokuyo Maru No21

Last reported at 2018-Jan-21 20:00 UTC. Time now 2018-Jan-21 20:29 UTC.
Position N 33°52' E 131°19'.

Length 67 m; draft 4.5 m.

Type: Tanker. MMSI: 431401849.

Date/timePositionNaut miles runAvg speedWind from/ knotsBaromVisibWave heightAir tempDewpointWater temp
2018-Jan-21 20:00N 33°52' E 131°19'612.7
2018-Jan-21 19:30N 33°50' E 131°26'612.7
2018-Jan-21 19:00N 33°49' E 131°34'612.6
2018-Jan-21 18:30N 33°48' E 131°41'712.6
2018-Jan-21 17:59N 33°47' E 131°49'1012.7
2018-Jan-21 17:11N 33°46' E 132°01'313.1
2018-Jan-21 16:59N 33°46' E 132°04'713.6
2018-Jan-21 16:30N 33°50' E 132°11'813.0
2018-Jan-21 15:55N 33°50' E 132°20'912.9
2018-Jan-21 15:14N 33°53' E 132°30'312.6
2018-Jan-21 15:00N 33°54' E 132°34'612.0
2018-Jan-21 14:30N 33°56' E 132°40'8911.0
2018-Jan-21 06:28N 34°25' E 134°21'612.4
2018-Jan-21 06:00N 34°28' E 134°28'612.6
2018-Jan-21 05:30N 34°30' E 134°35'612.8
2018-Jan-21 05:00N 34°32' E 134°42'713.6
2018-Jan-21 04:30N 34°35' E 134°50'713.8
2018-Jan-21 04:00N 34°37' E 134°58'713.3
2018-Jan-21 03:30N 34°36' E 135°06'612.8
2018-Jan-21 03:00N 34°36' E 135°13'612.5
2018-Jan-21 02:30N 34°36' E 135°21'4 8.2
2018-Jan-21 02:00N 34°34' E 135°26'0 0.0
2018-Jan-21 01:30N 34°34' E 135°26'0 0.0
2018-Jan-21 01:00N 34°34' E 135°26'0 0.0
2018-Jan-21 00:30N 34°34' E 135°26'0 0.0
2018-Jan-20 23:59N 34°34' E 135°26'0 0.0
2018-Jan-20 23:30N 34°34' E 135°26'0 0.0
2018-Jan-20 23:00N 34°34' E 135°26'1 3.0
2018-Jan-20 22:31N 34°36' E 135°25'2 3.5
2018-Jan-20 22:00N 34°36' E 135°23'0 0.0
2018-Jan-20 21:30N 34°36' E 135°23'0 0.1
2018-Jan-20 21:00N 34°36' E 135°23'0 0.1
2018-Jan-20 20:30N 34°36' E 135°23'0 0.0
2018-Jan-20 20:00N 34°36' E 135°23'0 0.0
2018-Jan-20 19:30N 34°36' E 135°23'0 0.0
2018-Jan-20 19:00N 34°36' E 135°23'0 0.0
2018-Jan-20 18:30N 34°36' E 135°23'0 0.0
2018-Jan-20 18:00N 34°36' E 135°23'0 0.0
2018-Jan-20 17:30N 34°36' E 135°23'0 0.0
2018-Jan-20 17:00N 34°36' E 135°23'0 0.0
2018-Jan-20 16:30N 34°36' E 135°23'0 0.1
2018-Jan-20 16:01N 34°36' E 135°23'0 0.0
2018-Jan-20 15:30N 34°36' E 135°23'0 0.1
2018-Jan-20 15:01N 34°36' E 135°23'0 0.0
2018-Jan-20 14:30N 34°36' E 135°23'510.5
2018-Jan-20 14:00N 34°32' E 135°18'611.9
2018-Jan-20 13:31N 34°28' E 135°13'612.4
2018-Jan-20 13:00N 34°23' E 135°08'612.9
2018-Jan-20 12:31N 34°18' E 135°04'612.7
2018-Jan-20 12:00N 34°12' E 135°03'612.5
2018-Jan-20 11:30N 34°06' E 135°03'612.5
2018-Jan-20 11:00N 33°59' E 135°03'712.5
2018-Jan-20 10:28N 33°53' E 135°03'19111.1
2018-Jan-19 17:18N 34°35' E 138°49'512.3
2018-Jan-19 16:55N 34°36' E 138°54'812.1
2018-Jan-19 16:16N 34°41' E 139°01'312.9
2018-Jan-19 16:00N 34°43' E 139°04'812.6
2018-Jan-19 15:24N 34°50' E 139°09'712.1
2018-Jan-19 14:49N 34°53' E 139°16'511.2
2018-Jan-19 14:21N 34°56' E 139°22'511.5
2018-Jan-19 13:54N 34°59' E 139°27'511.7
2018-Jan-19 13:28N 35°02' E 139°32'612.4
2018-Jan-19 13:00N 35°05' E 139°38'612.7
2018-Jan-19 12:30N 35°09' E 139°44'613.0
2018-Jan-19 12:00N 35°16' E 139°46'612.7
2018-Jan-19 11:30N 35°21' E 139°42'612.3
2018-Jan-19 11:01N 35°26' E 139°46'713.1
2018-Jan-19 10:31N 35°30' E 139°53'613.0
2018-Jan-19 10:01N 35°33' E 140°00'4 7.8
2018-Jan-19 09:30N 35°33' E 140°05'0 0.0
2018-Jan-19 09:01N 35°33' E 140°05'0 0.0
2018-Jan-19 08:31N 35°33' E 140°05'0 0.0
2018-Jan-19 08:01N 35°33' E 140°05'0 0.0
2018-Jan-19 07:29N 35°33' E 140°05'0 0.0
2018-Jan-19 07:00N 35°33' E 140°05'0 0.0
2018-Jan-19 06:30N 35°33' E 140°05'0 0.0
2018-Jan-19 06:01N 35°33' E 140°05'0 0.0
2018-Jan-19 05:29N 35°33' E 140°05'0 0.0
2018-Jan-19 05:00N 35°33' E 140°05'0 0.0
2018-Jan-19 04:30N 35°33' E 140°05'0 0.0
2018-Jan-19 04:01N 35°33' E 140°05'0 0.0
2018-Jan-19 03:31N 35°33' E 140°05'1 1.3
2018-Jan-19 03:00N 35°33' E 140°05'0 0.7
2018-Jan-19 02:28N 35°34' E 140°05'0 0.0
2018-Jan-19 02:00N 35°34' E 140°05'0 0.0
2018-Jan-19 01:30N 35°34' E 140°05'0 0.0
2018-Jan-19 01:00N 35°34' E 140°05'0 0.0
2018-Jan-19 00:31N 35°34' E 140°05'0 0.0
2018-Jan-19 00:01N 35°34' E 140°05'0 0.0
2018-Jan-18 23:30N 35°34' E 140°05'0 0.0
2018-Jan-18 23:00N 35°34' E 140°05'0 0.0
2018-Jan-18 22:30N 35°34' E 140°05'0 0.0
2018-Jan-18 22:01N 35°34' E 140°05'0 0.0
2018-Jan-18 21:31N 35°34' E 140°05'0 0.0
2018-Jan-18 21:00N 35°34' E 140°05'0 0.0
2018-Jan-18 20:29N 35°34' E 140°05'0 0.0
2018-Jan-18 20:00N 35°34' E 140°05'0 0.0
2018-Jan-18 19:30N 35°34' E 140°05'0 0.0
2018-Jan-18 19:00N 35°34' E 140°05'0 0.0
2018-Jan-18 18:30N 35°34' E 140°05'0 0.0
2018-Jan-18 18:00N 35°34' E 140°05'0 0.1
2018-Jan-18 17:30N 35°34' E 140°05'0 0.0
2018-Jan-18 17:01N 35°34' E 140°05'0 0.0
2018-Jan-18 16:31N 35°34' E 140°05'0 0.1
2018-Jan-18 16:01N 35°34' E 140°05'0 0.0
2018-Jan-18 15:31N 35°34' E 140°05'0 0.0
2018-Jan-18 15:01N 35°34' E 140°05'0 0.0
2018-Jan-18 14:31N 35°34' E 140°05'0 0.0
2018-Jan-18 14:01N 35°34' E 140°05'0 0.0
2018-Jan-18 13:30N 35°34' E 140°05'0 0.0
2018-Jan-18 13:00N 35°34' E 140°05'0 0.0
2018-Jan-18 12:30N 35°34' E 140°05'5 9.7
2018-Jan-18 12:01N 35°33' E 139°59'612.3
2018-Jan-18 11:30N 35°29' E 139°53'612.2
2018-Jan-18 11:00N 35°25' E 139°47'611.8
2018-Jan-18 10:31N 35°20' E 139°44'611.1
2018-Jan-18 10:01N 35°15' E 139°47'612.3
2018-Jan-18 09:30N 35°08' E 139°46'612.0
2018-Jan-18 09:00N 35°04' E 139°42'612.8
2018-Jan-18 08:30N 34°60' E 139°35'1313.7
2018-Jan-18 07:34N 34°52' E 139°23'312.8
2018-Jan-18 07:22N 34°50' E 139°20'613.7
2018-Jan-18 06:56N 34°46' E 139°15'713.9
2018-Jan-18 06:25N 34°42' E 139°08'613.7
2018-Jan-18 05:59N 34°39' E 139°02'613.3
2018-Jan-18 05:31N 34°35' E 138°56'1012.4
2018-Jan-18 04:44N 34°34' E 138°44'311.7
2018-Jan-18 04:29N 34°34' E 138°40'612.0
2018-Jan-18 03:57N 34°34' E 138°33'2112.6
2018-Jan-18 02:16N 34°33' E 138°07'413.6
2018-Jan-18 01:56N 34°33' E 138°02'  
2018-Jan-12 14:59N 35°33' E 140°05'0 0.0
2018-Jan-12 14:30N 35°33' E 140°05'0 0.0
2018-Jan-12 14:00N 35°33' E 140°05'0 0.0
2018-Jan-12 13:30N 35°33' E 140°05'0 0.0
2018-Jan-12 13:00N 35°33' E 140°05'0 0.0
2018-Jan-12 12:30N 35°33' E 140°05'0 0.0
2018-Jan-12 12:00N 35°33' E 140°05'0 0.0
2018-Jan-12 11:30N 35°33' E 140°05'0 0.0
2018-Jan-12 11:00N 35°33' E 140°05'1 1.2
2018-Jan-12 10:30N 35°33' E 140°04'612.1
2018-Jan-12 10:00N 35°31' E 139°57'612.5
2018-Jan-12 09:31N 35°28' E 139°51'612.4
2018-Jan-12 09:01N 35°23' E 139°46'611.4
2018-Jan-12 08:31N 35°17' E 139°45'611.9
2018-Jan-12 08:00N 35°11' E 139°47'612.6
2018-Jan-12 07:30N 35°06' E 139°43'613.1
2018-Jan-12 07:00N 35°02' E 139°37'814.8
2018-Jan-12 06:28N 34°57' E 139°29'815.4
2018-Jan-12 05:58N 34°52' E 139°22'714.9
2018-Jan-12 05:30N 34°48' E 139°15'814.0
2018-Jan-12 04:57N 34°43' E 139°08'613.5
2018-Jan-12 04:30N 34°39' E 139°03'713.5
2018-Jan-12 04:00N 34°35' E 138°56'913.9
2018-Jan-12 03:23N 34°34' E 138°45'513.4
2018-Jan-12 03:00N 34°33' E 138°39'713.2
2018-Jan-12 02:29N 34°32' E 138°31'1113.6
2018-Jan-12 01:40N 34°30' E 138°18'314.0
2018-Jan-12 01:25N 34°29' E 138°14'  

Dump ship's entire track history